sensor_id;sensor_type;location;lat;lon;timestamp;P1;durP1;ratioP1;P2;durP2;ratioP2
4555;SDS011;2290;48.674;9.018;2023-04-02T00:02:26;0.87;;;0.80;;
4555;SDS011;2290;48.674;9.018;2023-04-02T00:07:41;0.90;;;0.80;;
4555;SDS011;2290;48.674;9.018;2023-04-02T00:15:41;0.90;;;0.70;;
4555;SDS011;2290;48.674;9.018;2023-04-02T00:18:18;0.93;;;0.80;;
4555;SDS011;2290;48.674;9.018;2023-04-02T00:20:47;0.90;;;0.70;;
4555;SDS011;2290;48.674;9.018;2023-04-02T00:23:37;0.80;;;0.70;;
4555;SDS011;2290;48.674;9.018;2023-04-02T00:29:03;1.73;;;0.90;;
4555;SDS011;2290;48.674;9.018;2023-04-02T00:31:30;0.90;;;0.80;;
4555;SDS011;2290;48.674;9.018;2023-04-02T00:33:57;1.27;;;0.80;;
4555;SDS011;2290;48.674;9.018;2023-04-02T00:36:26;1.00;;;0.80;;
4555;SDS011;2290;48.674;9.018;2023-04-02T00:38:55;0.90;;;0.80;;
4555;SDS011;2290;48.674;9.018;2023-04-02T00:41:23;1.20;;;1.10;;
4555;SDS011;2290;48.674;9.018;2023-04-02T00:43:53;1.00;;;0.70;;
4555;SDS011;2290;48.674;9.018;2023-04-02T00:46:23;1.03;;;0.90;;
4555;SDS011;2290;48.674;9.018;2023-04-02T00:49:18;1.10;;;0.90;;
4555;SDS011;2290;48.674;9.018;2023-04-02T00:52:04;1.77;;;0.87;;
4555;SDS011;2290;48.674;9.018;2023-04-02T00:54:41;1.77;;;1.00;;
4555;SDS011;2290;48.674;9.018;2023-04-02T00:57:14;0.90;;;0.80;;
4555;SDS011;2290;48.674;9.018;2023-04-02T00:59:50;1.03;;;0.93;;
4555;SDS011;2290;48.674;9.018;2023-04-02T01:02:31;0.80;;;0.70;;
4555;SDS011;2290;48.674;9.018;2023-04-02T01:16:10;0.80;;;0.80;;
4555;SDS011;2290;48.674;9.018;2023-04-02T01:24:30;1.00;;;0.87;;
4555;SDS011;2290;48.674;9.018;2023-04-02T01:27:01;0.90;;;0.70;;
4555;SDS011;2290;48.674;9.018;2023-04-02T01:29:41;1.30;;;0.80;;
4555;SDS011;2290;48.674;9.018;2023-04-02T01:32:11;1.10;;;0.80;;
4555;SDS011;2290;48.674;9.018;2023-04-02T01:34:42;0.90;;;0.80;;
4555;SDS011;2290;48.674;9.018;2023-04-02T01:45:48;0.90;;;0.60;;
4555;SDS011;2290;48.674;9.018;2023-04-02T01:48:21;0.80;;;0.70;;
4555;SDS011;2290;48.674;9.018;2023-04-02T01:50:51;1.00;;;0.70;;
4555;SDS011;2290;48.674;9.018;2023-04-02T01:53:19;1.20;;;0.80;;
4555;SDS011;2290;48.674;9.018;2023-04-02T01:55:54;1.00;;;0.70;;
4555;SDS011;2290;48.674;9.018;2023-04-02T01:58:24;1.20;;;0.87;;
4555;SDS011;2290;48.674;9.018;2023-04-02T02:00:54;0.80;;;0.70;;
4555;SDS011;2290;48.674;9.018;2023-04-02T02:03:43;0.90;;;0.80;;
4555;SDS011;2290;48.674;9.018;2023-04-02T02:06:12;1.10;;;1.00;;
4555;SDS011;2290;48.674;9.018;2023-04-02T02:11:17;1.20;;;0.70;;
4555;SDS011;2290;48.674;9.018;2023-04-02T02:13:56;1.00;;;0.80;;
4555;SDS011;2290;48.674;9.018;2023-04-02T02:16:26;1.00;;;0.90;;
4555;SDS011;2290;48.674;9.018;2023-04-02T02:18:57;0.90;;;0.80;;
4555;SDS011;2290;48.674;9.018;2023-04-02T02:21:32;1.00;;;0.83;;
4555;SDS011;2290;48.674;9.018;2023-04-02T02:27:07;1.07;;;0.80;;
4555;SDS011;2290;48.674;9.018;2023-04-02T02:29:37;0.93;;;0.80;;
4555;SDS011;2290;48.674;9.018;2023-04-02T02:32:06;1.00;;;0.90;;
4555;SDS011;2290;48.674;9.018;2023-04-02T02:34:38;1.50;;;0.87;;
4555;SDS011;2290;48.674;9.018;2023-04-02T02:37:22;1.10;;;0.90;;
4555;SDS011;2290;48.674;9.018;2023-04-02T02:39:53;1.30;;;0.90;;
4555;SDS011;2290;48.674;9.018;2023-04-02T02:42:27;1.33;;;1.00;;
4555;SDS011;2290;48.674;9.018;2023-04-02T02:45:00;1.50;;;1.00;;
4555;SDS011;2290;48.674;9.018;2023-04-02T02:47:31;2.13;;;1.00;;
4555;SDS011;2290;48.674;9.018;2023-04-02T02:50:01;1.00;;;0.90;;
4555;SDS011;2290;48.674;9.018;2023-04-02T02:52:31;1.30;;;0.80;;
4555;SDS011;2290;48.674;9.018;2023-04-02T02:55:04;1.17;;;0.90;;
4555;SDS011;2290;48.674;9.018;2023-04-02T02:57:37;4.00;;;1.00;;
4555;SDS011;2290;48.674;9.018;2023-04-02T03:00:09;4.73;;;1.50;;
4555;SDS011;2290;48.674;9.018;2023-04-02T03:02:36;1.30;;;1.00;;
4555;SDS011;2290;48.674;9.018;2023-04-02T03:05:05;1.23;;;0.80;;
4555;SDS011;2290;48.674;9.018;2023-04-02T03:07:32;1.50;;;1.03;;
4555;SDS011;2290;48.674;9.018;2023-04-02T03:10:03;3.63;;;0.90;;
4555;SDS011;2290;48.674;9.018;2023-04-02T03:15:37;0.90;;;0.80;;
4555;SDS011;2290;48.674;9.018;2023-04-02T03:21:35;1.07;;;0.90;;
4555;SDS011;2290;48.674;9.018;2023-04-02T03:24:17;1.10;;;1.00;;
4555;SDS011;2290;48.674;9.018;2023-04-02T03:26:55;1.30;;;0.90;;
4555;SDS011;2290;48.674;9.018;2023-04-02T03:29:28;1.00;;;0.90;;
4555;SDS011;2290;48.674;9.018;2023-04-02T03:32:06;1.43;;;0.90;;
4555;SDS011;2290;48.674;9.018;2023-04-02T03:34:41;0.90;;;0.80;;
4555;SDS011;2290;48.674;9.018;2023-04-02T03:37:23;1.00;;;0.90;;
4555;SDS011;2290;48.674;9.018;2023-04-02T03:42:29;1.30;;;0.87;;
4555;SDS011;2290;48.674;9.018;2023-04-02T03:45:14;1.20;;;0.90;;
4555;SDS011;2290;48.674;9.018;2023-04-02T03:50:34;1.23;;;1.10;;
4555;SDS011;2290;48.674;9.018;2023-04-02T03:53:22;1.00;;;0.90;;
4555;SDS011;2290;48.674;9.018;2023-04-02T03:55:49;1.20;;;0.83;;
4555;SDS011;2290;48.674;9.018;2023-04-02T04:01:02;1.03;;;0.90;;
4555;SDS011;2290;48.674;9.018;2023-04-02T04:03:52;1.10;;;0.90;;
4555;SDS011;2290;48.674;9.018;2023-04-02T04:06:23;2.00;;;1.03;;
4555;SDS011;2290;48.674;9.018;2023-04-02T04:09:00;1.23;;;1.00;;
4555;SDS011;2290;48.674;9.018;2023-04-02T04:11:31;1.20;;;1.00;;
4555;SDS011;2290;48.674;9.018;2023-04-02T04:14:11;1.20;;;0.90;;
4555;SDS011;2290;48.674;9.018;2023-04-02T04:17:01;1.20;;;1.10;;
4555;SDS011;2290;48.674;9.018;2023-04-02T04:19:53;1.33;;;1.00;;
4555;SDS011;2290;48.674;9.018;2023-04-02T04:22:32;1.10;;;1.00;;
4555;SDS011;2290;48.674;9.018;2023-04-02T04:25:02;1.67;;;1.07;;
4555;SDS011;2290;48.674;9.018;2023-04-02T04:27:32;1.20;;;1.00;;
4555;SDS011;2290;48.674;9.018;2023-04-02T04:35:32;1.10;;;1.00;;
4555;SDS011;2290;48.674;9.018;2023-04-02T04:38:05;1.10;;;1.00;;
4555;SDS011;2290;48.674;9.018;2023-04-02T04:40:45;2.23;;;1.30;;
4555;SDS011;2290;48.674;9.018;2023-04-02T04:43:19;1.57;;;1.10;;
4555;SDS011;2290;48.674;9.018;2023-04-02T04:45:55;1.47;;;1.10;;
4555;SDS011;2290;48.674;9.018;2023-04-02T04:51:00;1.00;;;0.90;;
4555;SDS011;2290;48.674;9.018;2023-04-02T04:53:34;1.30;;;1.20;;
4555;SDS011;2290;48.674;9.018;2023-04-02T04:56:11;1.83;;;1.33;;
4555;SDS011;2290;48.674;9.018;2023-04-02T05:01:21;1.20;;;1.10;;
4555;SDS011;2290;48.674;9.018;2023-04-02T05:03:54;3.13;;;1.43;;
4555;SDS011;2290;48.674;9.018;2023-04-02T05:09:06;1.20;;;1.10;;
4555;SDS011;2290;48.674;9.018;2023-04-02T05:11:56;3.80;;;1.20;;
4555;SDS011;2290;48.674;9.018;2023-04-02T05:14:35;1.63;;;1.40;;
4555;SDS011;2290;48.674;9.018;2023-04-02T05:17:10;1.40;;;1.00;;
4555;SDS011;2290;48.674;9.018;2023-04-02T05:23:02;2.90;;;1.20;;
4555;SDS011;2290;48.674;9.018;2023-04-02T05:25:29;1.60;;;1.40;;
4555;SDS011;2290;48.674;9.018;2023-04-02T05:28:03;1.27;;;0.97;;
4555;SDS011;2290;48.674;9.018;2023-04-02T05:33:20;1.30;;;1.10;;
4555;SDS011;2290;48.674;9.018;2023-04-02T05:35:56;1.63;;;1.20;;
4555;SDS011;2290;48.674;9.018;2023-04-02T05:38:48;1.17;;;1.07;;
4555;SDS011;2290;48.674;9.018;2023-04-02T05:41:25;1.40;;;1.00;;
4555;SDS011;2290;48.674;9.018;2023-04-02T05:44:03;2.30;;;1.27;;
4555;SDS011;2290;48.674;9.018;2023-04-02T05:46:35;1.20;;;1.00;;
4555;SDS011;2290;48.674;9.018;2023-04-02T05:49:08;1.20;;;1.00;;
4555;SDS011;2290;48.674;9.018;2023-04-02T05:51:46;2.00;;;1.40;;
4555;SDS011;2290;48.674;9.018;2023-04-02T05:56:56;1.40;;;1.10;;
4555;SDS011;2290;48.674;9.018;2023-04-02T05:59:31;2.10;;;1.27;;
4555;SDS011;2290;48.674;9.018;2023-04-02T06:02:06;1.73;;;1.20;;
4555;SDS011;2290;48.674;9.018;2023-04-02T06:04:55;1.10;;;1.00;;
4555;SDS011;2290;48.674;9.018;2023-04-02T06:07:49;1.57;;;1.20;;
4555;SDS011;2290;48.674;9.018;2023-04-02T06:10:27;1.17;;;1.07;;
4555;SDS011;2290;48.674;9.018;2023-04-02T06:12:57;2.03;;;1.10;;
4555;SDS011;2290;48.674;9.018;2023-04-02T06:15:31;2.97;;;1.10;;
4555;SDS011;2290;48.674;9.018;2023-04-02T06:20:26;3.30;;;1.30;;
4555;SDS011;2290;48.674;9.018;2023-04-02T06:25:57;2.80;;;1.23;;
4555;SDS011;2290;48.674;9.018;2023-04-02T06:28:33;1.10;;;1.00;;
4555;SDS011;2290;48.674;9.018;2023-04-02T06:31:07;2.90;;;1.50;;
4555;SDS011;2290;48.674;9.018;2023-04-02T06:33:36;2.03;;;1.53;;
4555;SDS011;2290;48.674;9.018;2023-04-02T06:36:01;1.57;;;1.30;;
4555;SDS011;2290;48.674;9.018;2023-04-02T06:38:31;1.27;;;1.17;;
4555;SDS011;2290;48.674;9.018;2023-04-02T06:41:01;1.30;;;1.20;;
4555;SDS011;2290;48.674;9.018;2023-04-02T06:43:54;1.40;;;1.30;;
4555;SDS011;2290;48.674;9.018;2023-04-02T06:46:34;2.50;;;1.13;;
4555;SDS011;2290;48.674;9.018;2023-04-02T06:49:33;1.40;;;1.17;;
4555;SDS011;2290;48.674;9.018;2023-04-02T06:52:28;1.67;;;1.07;;
4555;SDS011;2290;48.674;9.018;2023-04-02T06:55:03;1.60;;;1.27;;
4555;SDS011;2290;48.674;9.018;2023-04-02T06:57:45;1.60;;;1.30;;
4555;SDS011;2290;48.674;9.018;2023-04-02T07:00:20;1.57;;;1.20;;
4555;SDS011;2290;48.674;9.018;2023-04-02T07:02:55;3.00;;;1.73;;
4555;SDS011;2290;48.674;9.018;2023-04-02T07:05:23;1.10;;;1.00;;
4555;SDS011;2290;48.674;9.018;2023-04-02T07:07:48;2.80;;;1.33;;
4555;SDS011;2290;48.674;9.018;2023-04-02T07:10:15;2.90;;;1.10;;
4555;SDS011;2290;48.674;9.018;2023-04-02T07:12:43;1.40;;;1.30;;
4555;SDS011;2290;48.674;9.018;2023-04-02T07:15:11;1.93;;;1.40;;
4555;SDS011;2290;48.674;9.018;2023-04-02T07:17:40;1.50;;;1.13;;
4555;SDS011;2290;48.674;9.018;2023-04-02T07:20:13;1.47;;;1.20;;
4555;SDS011;2290;48.674;9.018;2023-04-02T07:22:53;1.80;;;1.20;;
4555;SDS011;2290;48.674;9.018;2023-04-02T07:25:19;3.83;;;1.47;;
4555;SDS011;2290;48.674;9.018;2023-04-02T07:27:45;1.57;;;1.47;;
4555;SDS011;2290;48.674;9.018;2023-04-02T07:30:12;1.10;;;1.00;;
4555;SDS011;2290;48.674;9.018;2023-04-02T07:32:38;2.20;;;1.30;;
4555;SDS011;2290;48.674;9.018;2023-04-02T07:35:05;1.30;;;1.17;;
4555;SDS011;2290;48.674;9.018;2023-04-02T07:37:31;1.33;;;1.20;;
4555;SDS011;2290;48.674;9.018;2023-04-02T07:39:57;1.10;;;0.97;;
4555;SDS011;2290;48.674;9.018;2023-04-02T07:42:25;1.03;;;0.93;;
4555;SDS011;2290;48.674;9.018;2023-04-02T07:44:52;1.53;;;1.43;;
4555;SDS011;2290;48.674;9.018;2023-04-02T07:47:19;2.20;;;0.90;;
4555;SDS011;2290;48.674;9.018;2023-04-02T07:49:46;1.10;;;1.00;;
4555;SDS011;2290;48.674;9.018;2023-04-02T07:52:12;1.90;;;1.07;;
4555;SDS011;2290;48.674;9.018;2023-04-02T07:54:39;1.30;;;1.00;;
4555;SDS011;2290;48.674;9.018;2023-04-02T07:57:05;1.20;;;1.10;;
4555;SDS011;2290;48.674;9.018;2023-04-02T07:59:31;1.33;;;1.00;;
4555;SDS011;2290;48.674;9.018;2023-04-02T08:01:57;1.50;;;1.30;;
4555;SDS011;2290;48.674;9.018;2023-04-02T08:04:22;2.17;;;1.00;;
4555;SDS011;2290;48.674;9.018;2023-04-02T08:06:48;1.27;;;1.17;;
4555;SDS011;2290;48.674;9.018;2023-04-02T08:09:15;1.00;;;0.90;;
4555;SDS011;2290;48.674;9.018;2023-04-02T08:11:41;1.00;;;0.90;;
4555;SDS011;2290;48.674;9.018;2023-04-02T08:14:07;1.00;;;0.90;;
4555;SDS011;2290;48.674;9.018;2023-04-02T08:16:47;1.33;;;1.07;;
4555;SDS011;2290;48.674;9.018;2023-04-02T08:19:18;2.00;;;1.30;;
4555;SDS011;2290;48.674;9.018;2023-04-02T08:21:44;1.77;;;1.10;;
4555;SDS011;2290;48.674;9.018;2023-04-02T08:24:10;2.93;;;1.40;;
4555;SDS011;2290;48.674;9.018;2023-04-02T08:26:35;2.83;;;1.20;;
4555;SDS011;2290;48.674;9.018;2023-04-02T08:29:01;2.97;;;1.10;;
4555;SDS011;2290;48.674;9.018;2023-04-02T08:31:27;1.63;;;1.33;;
4555;SDS011;2290;48.674;9.018;2023-04-02T08:33:57;1.60;;;1.50;;
4555;SDS011;2290;48.674;9.018;2023-04-02T08:36:27;3.10;;;2.03;;
4555;SDS011;2290;48.674;9.018;2023-04-02T08:38:58;1.20;;;0.97;;
4555;SDS011;2290;48.674;9.018;2023-04-02T08:41:28;1.67;;;1.50;;
4555;SDS011;2290;48.674;9.018;2023-04-02T08:44:03;1.80;;;1.50;;
4555;SDS011;2290;48.674;9.018;2023-04-02T08:46:51;1.60;;;1.30;;
4555;SDS011;2290;48.674;9.018;2023-04-02T08:49:26;1.33;;;1.20;;
4555;SDS011;2290;48.674;9.018;2023-04-02T08:52:01;1.37;;;1.10;;
4555;SDS011;2290;48.674;9.018;2023-04-02T08:54:29;1.13;;;1.03;;
4555;SDS011;2290;48.674;9.018;2023-04-02T08:56:59;1.47;;;1.20;;
4555;SDS011;2290;48.674;9.018;2023-04-02T08:59:40;2.63;;;1.27;;
4555;SDS011;2290;48.674;9.018;2023-04-02T09:05:31;1.23;;;0.90;;
4555;SDS011;2290;48.674;9.018;2023-04-02T09:07:57;1.50;;;1.20;;
4555;SDS011;2290;48.674;9.018;2023-04-02T09:10:31;1.53;;;1.30;;
4555;SDS011;2290;48.674;9.018;2023-04-02T09:13:08;1.17;;;0.90;;
4555;SDS011;2290;48.674;9.018;2023-04-02T09:15:43;1.60;;;1.10;;
4555;SDS011;2290;48.674;9.018;2023-04-02T09:18:12;1.93;;;1.00;;
4555;SDS011;2290;48.674;9.018;2023-04-02T09:20:42;3.17;;;1.00;;
4555;SDS011;2290;48.674;9.018;2023-04-02T09:23:13;1.10;;;0.90;;
4555;SDS011;2290;48.674;9.018;2023-04-02T09:25:45;1.30;;;1.20;;
4555;SDS011;2290;48.674;9.018;2023-04-02T09:28:12;1.47;;;1.00;;
4555;SDS011;2290;48.674;9.018;2023-04-02T09:33:16;1.00;;;0.90;;
4555;SDS011;2290;48.674;9.018;2023-04-02T09:38:28;1.20;;;1.00;;
4555;SDS011;2290;48.674;9.018;2023-04-02T09:41:00;1.17;;;1.07;;
4555;SDS011;2290;48.674;9.018;2023-04-02T09:43:31;4.20;;;1.10;;
4555;SDS011;2290;48.674;9.018;2023-04-02T09:48:35;1.30;;;1.03;;
4555;SDS011;2290;48.674;9.018;2023-04-02T09:53:38;1.20;;;1.10;;
4555;SDS011;2290;48.674;9.018;2023-04-02T09:56:08;1.80;;;1.10;;
4555;SDS011;2290;48.674;9.018;2023-04-02T09:58:36;1.00;;;0.90;;
4555;SDS011;2290;48.674;9.018;2023-04-02T10:01:02;1.13;;;0.90;;
4555;SDS011;2290;48.674;9.018;2023-04-02T10:03:30;2.00;;;1.30;;
4555;SDS011;2290;48.674;9.018;2023-04-02T10:06:04;1.00;;;0.90;;
4555;SDS011;2290;48.674;9.018;2023-04-02T10:08:39;1.00;;;0.90;;
4555;SDS011;2290;48.674;9.018;2023-04-02T10:14:25;1.00;;;0.90;;
4555;SDS011;2290;48.674;9.018;2023-04-02T10:16:53;1.30;;;0.87;;
4555;SDS011;2290;48.674;9.018;2023-04-02T10:22:01;0.90;;;0.80;;
4555;SDS011;2290;48.674;9.018;2023-04-02T10:24:30;1.10;;;1.00;;
4555;SDS011;2290;48.674;9.018;2023-04-02T10:29:53;1.10;;;0.80;;
4555;SDS011;2290;48.674;9.018;2023-04-02T10:32:59;1.67;;;1.00;;
4555;SDS011;2290;48.674;9.018;2023-04-02T10:35:39;1.40;;;1.20;;
4555;SDS011;2290;48.674;9.018;2023-04-02T10:51:57;1.00;;;0.83;;
4555;SDS011;2290;48.674;9.018;2023-04-02T10:54:52;1.43;;;0.87;;
4555;SDS011;2290;48.674;9.018;2023-04-02T10:57:39;1.40;;;1.00;;
4555;SDS011;2290;48.674;9.018;2023-04-02T11:02:55;1.30;;;0.90;;
4555;SDS011;2290;48.674;9.018;2023-04-02T11:08:19;1.40;;;1.10;;
4555;SDS011;2290;48.674;9.018;2023-04-02T11:16:24;1.20;;;0.90;;
4555;SDS011;2290;48.674;9.018;2023-04-02T11:21:38;1.30;;;1.17;;
4555;SDS011;2290;48.674;9.018;2023-04-02T11:29:44;1.60;;;0.90;;
4555;SDS011;2290;48.674;9.018;2023-04-02T11:37:38;1.20;;;1.10;;
4555;SDS011;2290;48.674;9.018;2023-04-02T11:42:42;1.57;;;0.90;;
4555;SDS011;2290;48.674;9.018;2023-04-02T11:50:35;1.07;;;0.80;;
4555;SDS011;2290;48.674;9.018;2023-04-02T11:55:44;1.60;;;1.23;;
4555;SDS011;2290;48.674;9.018;2023-04-02T12:03:41;0.90;;;0.83;;
4555;SDS011;2290;48.674;9.018;2023-04-02T12:06:25;1.37;;;1.00;;
4555;SDS011;2290;48.674;9.018;2023-04-02T12:11:57;1.67;;;1.03;;
4555;SDS011;2290;48.674;9.018;2023-04-02T12:14:29;1.00;;;0.90;;
4555;SDS011;2290;48.674;9.018;2023-04-02T12:20:17;1.67;;;0.90;;
4555;SDS011;2290;48.674;9.018;2023-04-02T12:22:46;1.10;;;1.00;;
4555;SDS011;2290;48.674;9.018;2023-04-02T12:30:35;0.90;;;0.80;;
4555;SDS011;2290;48.674;9.018;2023-04-02T12:36:05;1.23;;;1.07;;
4555;SDS011;2290;48.674;9.018;2023-04-02T12:38:48;1.10;;;0.93;;
4555;SDS011;2290;48.674;9.018;2023-04-02T12:44:04;1.20;;;0.90;;
4555;SDS011;2290;48.674;9.018;2023-04-02T12:46:38;2.50;;;1.00;;
4555;SDS011;2290;48.674;9.018;2023-04-02T12:49:10;0.97;;;0.87;;
4555;SDS011;2290;48.674;9.018;2023-04-02T12:51:51;1.00;;;0.90;;
4555;SDS011;2290;48.674;9.018;2023-04-02T12:54:18;2.03;;;1.33;;
4555;SDS011;2290;48.674;9.018;2023-04-02T12:56:45;1.70;;;1.10;;
4555;SDS011;2290;48.674;9.018;2023-04-02T13:02:00;1.40;;;0.90;;
4555;SDS011;2290;48.674;9.018;2023-04-02T13:04:27;1.60;;;0.83;;
4555;SDS011;2290;48.674;9.018;2023-04-02T13:06:52;1.00;;;0.80;;
4555;SDS011;2290;48.674;9.018;2023-04-02T13:09:25;1.20;;;0.90;;
4555;SDS011;2290;48.674;9.018;2023-04-02T13:11:58;0.93;;;0.80;;
4555;SDS011;2290;48.674;9.018;2023-04-02T13:14:24;1.00;;;0.90;;
4555;SDS011;2290;48.674;9.018;2023-04-02T13:16:51;1.00;;;0.80;;
4555;SDS011;2290;48.674;9.018;2023-04-02T13:19:20;1.17;;;0.80;;
4555;SDS011;2290;48.674;9.018;2023-04-02T13:21:49;1.00;;;0.90;;
4555;SDS011;2290;48.674;9.018;2023-04-02T13:24:21;1.00;;;0.80;;
4555;SDS011;2290;48.674;9.018;2023-04-02T13:26:58;1.13;;;0.90;;
4555;SDS011;2290;48.674;9.018;2023-04-02T13:29:26;1.13;;;0.90;;
4555;SDS011;2290;48.674;9.018;2023-04-02T13:31:55;1.10;;;0.80;;
4555;SDS011;2290;48.674;9.018;2023-04-02T13:34:24;1.33;;;0.93;;
4555;SDS011;2290;48.674;9.018;2023-04-02T13:36:49;1.50;;;1.00;;
4555;SDS011;2290;48.674;9.018;2023-04-02T13:39:15;1.57;;;0.90;;
4555;SDS011;2290;48.674;9.018;2023-04-02T13:41:46;1.10;;;1.00;;
4555;SDS011;2290;48.674;9.018;2023-04-02T13:44:19;1.83;;;1.00;;
4555;SDS011;2290;48.674;9.018;2023-04-02T13:46:46;1.60;;;1.03;;
4555;SDS011;2290;48.674;9.018;2023-04-02T13:49:12;1.10;;;0.90;;
4555;SDS011;2290;48.674;9.018;2023-04-02T13:51:45;1.30;;;1.20;;
4555;SDS011;2290;48.674;9.018;2023-04-02T13:54:29;2.20;;;1.30;;
4555;SDS011;2290;48.674;9.018;2023-04-02T13:56:59;1.00;;;0.90;;
4555;SDS011;2290;48.674;9.018;2023-04-02T13:59:27;0.97;;;0.87;;
4555;SDS011;2290;48.674;9.018;2023-04-02T14:01:55;0.90;;;0.80;;
4555;SDS011;2290;48.674;9.018;2023-04-02T14:04:29;1.07;;;0.97;;
4555;SDS011;2290;48.674;9.018;2023-04-02T14:07:03;1.00;;;0.90;;
4555;SDS011;2290;48.674;9.018;2023-04-02T14:09:58;1.40;;;1.20;;
4555;SDS011;2290;48.674;9.018;2023-04-02T14:21:29;1.70;;;1.40;;
4555;SDS011;2290;48.674;9.018;2023-04-02T14:29:46;1.60;;;1.47;;
4555;SDS011;2290;48.674;9.018;2023-04-02T14:43:11;1.70;;;1.60;;
4555;SDS011;2290;48.674;9.018;2023-04-02T14:46:22;2.60;;;1.87;;
4555;SDS011;2290;48.674;9.018;2023-04-02T14:48:47;2.40;;;2.20;;
4555;SDS011;2290;48.674;9.018;2023-04-02T14:54:16;2.23;;;1.80;;
4555;SDS011;2290;48.674;9.018;2023-04-02T15:02:33;2.00;;;1.80;;
4555;SDS011;2290;48.674;9.018;2023-04-02T15:08:06;2.40;;;1.93;;
4555;SDS011;2290;48.674;9.018;2023-04-02T15:13:22;2.37;;;2.10;;
4555;SDS011;2290;48.674;9.018;2023-04-02T15:16:03;1.70;;;1.60;;
4555;SDS011;2290;48.674;9.018;2023-04-02T15:18:42;2.40;;;2.10;;
4555;SDS011;2290;48.674;9.018;2023-04-02T15:24:18;3.47;;;1.93;;
4555;SDS011;2290;48.674;9.018;2023-04-02T15:30:24;3.70;;;2.27;;
4555;SDS011;2290;48.674;9.018;2023-04-02T15:32:54;2.50;;;2.10;;
4555;SDS011;2290;48.674;9.018;2023-04-02T15:35:26;2.33;;;2.10;;
4555;SDS011;2290;48.674;9.018;2023-04-02T15:40:52;1.93;;;1.67;;
4555;SDS011;2290;48.674;9.018;2023-04-02T15:49:23;2.53;;;2.00;;
4555;SDS011;2290;48.674;9.018;2023-04-02T15:52:19;2.50;;;1.97;;
4555;SDS011;2290;48.674;9.018;2023-04-02T16:00:50;1.90;;;1.47;;
4555;SDS011;2290;48.674;9.018;2023-04-02T16:06:29;3.60;;;1.60;;
4555;SDS011;2290;48.674;9.018;2023-04-02T16:09:13;5.43;;;1.70;;
4555;SDS011;2290;48.674;9.018;2023-04-02T16:11:52;2.73;;;2.37;;
4555;SDS011;2290;48.674;9.018;2023-04-02T16:14:29;1.60;;;1.50;;
4555;SDS011;2290;48.674;9.018;2023-04-02T16:17:02;2.73;;;1.90;;
4555;SDS011;2290;48.674;9.018;2023-04-02T16:19:32;2.17;;;1.50;;
4555;SDS011;2290;48.674;9.018;2023-04-02T16:24:29;2.00;;;1.60;;
4555;SDS011;2290;48.674;9.018;2023-04-02T16:29:34;2.40;;;1.97;;
4555;SDS011;2290;48.674;9.018;2023-04-02T16:32:16;3.77;;;1.90;;
4555;SDS011;2290;48.674;9.018;2023-04-02T16:34:55;1.57;;;1.47;;
4555;SDS011;2290;48.674;9.018;2023-04-02T16:46:11;4.07;;;1.80;;
4555;SDS011;2290;48.674;9.018;2023-04-02T16:48:54;2.10;;;1.90;;
4555;SDS011;2290;48.674;9.018;2023-04-02T16:57:16;1.87;;;1.67;;
4555;SDS011;2290;48.674;9.018;2023-04-02T17:07:33;2.30;;;2.10;;
4555;SDS011;2290;48.674;9.018;2023-04-02T17:16:12;2.70;;;2.37;;
4555;SDS011;2290;48.674;9.018;2023-04-02T17:18:45;2.43;;;1.90;;
4555;SDS011;2290;48.674;9.018;2023-04-02T17:21:16;2.63;;;2.03;;
4555;SDS011;2290;48.674;9.018;2023-04-02T17:23:49;3.13;;;2.53;;
4555;SDS011;2290;48.674;9.018;2023-04-02T17:26:38;3.60;;;2.60;;
4555;SDS011;2290;48.674;9.018;2023-04-02T17:29:07;2.53;;;2.23;;
4555;SDS011;2290;48.674;9.018;2023-04-02T17:31:38;2.53;;;2.33;;
4555;SDS011;2290;48.674;9.018;2023-04-02T17:34:12;2.80;;;2.40;;
4555;SDS011;2290;48.674;9.018;2023-04-02T17:36:46;3.30;;;2.60;;
4555;SDS011;2290;48.674;9.018;2023-04-02T17:39:19;2.10;;;1.90;;
4555;SDS011;2290;48.674;9.018;2023-04-02T17:45:35;3.30;;;2.40;;
4555;SDS011;2290;48.674;9.018;2023-04-02T17:53:01;2.73;;;2.20;;
4555;SDS011;2290;48.674;9.018;2023-04-02T17:58:33;10.27;;;6.23;;
4555;SDS011;2290;48.674;9.018;2023-04-02T18:09:54;3.00;;;2.30;;
4555;SDS011;2290;48.674;9.018;2023-04-02T18:24:06;4.13;;;2.70;;
4555;SDS011;2290;48.674;9.018;2023-04-02T18:29:56;2.70;;;2.50;;
4555;SDS011;2290;48.674;9.018;2023-04-02T18:36:02;3.67;;;3.10;;
4555;SDS011;2290;48.674;9.018;2023-04-02T18:38:41;4.27;;;2.60;;
4555;SDS011;2290;48.674;9.018;2023-04-02T18:44:17;2.87;;;2.53;;
4555;SDS011;2290;48.674;9.018;2023-04-02T18:52:55;4.20;;;3.13;;
4555;SDS011;2290;48.674;9.018;2023-04-02T18:55:23;6.37;;;3.00;;
4555;SDS011;2290;48.674;9.018;2023-04-02T18:58:09;3.03;;;2.53;;
4555;SDS011;2290;48.674;9.018;2023-04-02T19:00:44;5.73;;;2.80;;
4555;SDS011;2290;48.674;9.018;2023-04-02T19:06:30;3.70;;;3.10;;
4555;SDS011;2290;48.674;9.018;2023-04-02T19:09:05;4.10;;;3.00;;
4555;SDS011;2290;48.674;9.018;2023-04-02T19:11:45;5.57;;;3.30;;
4555;SDS011;2290;48.674;9.018;2023-04-02T19:14:14;4.80;;;2.93;;
4555;SDS011;2290;48.674;9.018;2023-04-02T19:16:43;4.67;;;3.40;;
4555;SDS011;2290;48.674;9.018;2023-04-02T19:27:18;4.67;;;3.07;;
4555;SDS011;2290;48.674;9.018;2023-04-02T19:32:56;4.67;;;3.33;;
4555;SDS011;2290;48.674;9.018;2023-04-02T19:35:56;5.13;;;3.40;;
4555;SDS011;2290;48.674;9.018;2023-04-02T19:44:07;4.73;;;3.40;;
4555;SDS011;2290;48.674;9.018;2023-04-02T19:46:33;4.47;;;3.20;;
4555;SDS011;2290;48.674;9.018;2023-04-02T19:49:04;3.83;;;3.27;;
4555;SDS011;2290;48.674;9.018;2023-04-02T19:51:34;5.63;;;4.00;;
4555;SDS011;2290;48.674;9.018;2023-04-02T19:53:59;4.10;;;2.83;;
4555;SDS011;2290;48.674;9.018;2023-04-02T19:56:25;7.80;;;3.30;;
4555;SDS011;2290;48.674;9.018;2023-04-02T19:58:52;3.77;;;2.63;;
4555;SDS011;2290;48.674;9.018;2023-04-02T20:01:18;3.70;;;2.90;;
4555;SDS011;2290;48.674;9.018;2023-04-02T20:03:44;6.23;;;2.67;;
4555;SDS011;2290;48.674;9.018;2023-04-02T20:06:09;3.57;;;2.60;;
4555;SDS011;2290;48.674;9.018;2023-04-02T20:08:35;3.33;;;2.90;;
4555;SDS011;2290;48.674;9.018;2023-04-02T20:11:02;3.73;;;3.00;;
4555;SDS011;2290;48.674;9.018;2023-04-02T20:13:28;4.20;;;2.93;;
4555;SDS011;2290;48.674;9.018;2023-04-02T20:15:58;3.27;;;2.43;;
4555;SDS011;2290;48.674;9.018;2023-04-02T20:18:26;4.50;;;2.50;;
4555;SDS011;2290;48.674;9.018;2023-04-02T20:20:52;3.63;;;2.43;;
4555;SDS011;2290;48.674;9.018;2023-04-02T20:23:17;3.23;;;2.50;;
4555;SDS011;2290;48.674;9.018;2023-04-02T20:25:44;3.17;;;2.50;;
4555;SDS011;2290;48.674;9.018;2023-04-02T20:28:16;3.70;;;2.60;;
4555;SDS011;2290;48.674;9.018;2023-04-02T20:30:43;3.10;;;2.20;;
4555;SDS011;2290;48.674;9.018;2023-04-02T20:33:08;2.60;;;2.40;;
4555;SDS011;2290;48.674;9.018;2023-04-02T20:35:34;3.33;;;2.50;;
4555;SDS011;2290;48.674;9.018;2023-04-02T20:38:01;4.10;;;2.73;;
4555;SDS011;2290;48.674;9.018;2023-04-02T20:40:31;5.83;;;2.43;;
4555;SDS011;2290;48.674;9.018;2023-04-02T20:42:58;3.03;;;2.53;;
4555;SDS011;2290;48.674;9.018;2023-04-02T20:45:24;4.00;;;3.03;;
4555;SDS011;2290;48.674;9.018;2023-04-02T20:47:53;2.97;;;2.67;;
4555;SDS011;2290;48.674;9.018;2023-04-02T20:50:19;3.30;;;2.53;;
4555;SDS011;2290;48.674;9.018;2023-04-02T20:52:46;3.77;;;2.53;;
4555;SDS011;2290;48.674;9.018;2023-04-02T20:55:12;4.43;;;2.93;;
4555;SDS011;2290;48.674;9.018;2023-04-02T20:57:37;2.57;;;2.37;;
4555;SDS011;2290;48.674;9.018;2023-04-02T21:00:03;4.07;;;2.57;;
4555;SDS011;2290;48.674;9.018;2023-04-02T21:02:31;3.27;;;2.73;;
4555;SDS011;2290;48.674;9.018;2023-04-02T21:04:56;2.93;;;2.20;;
4555;SDS011;2290;48.674;9.018;2023-04-02T21:07:22;3.47;;;2.37;;
4555;SDS011;2290;48.674;9.018;2023-04-02T21:09:47;6.60;;;3.03;;
4555;SDS011;2290;48.674;9.018;2023-04-02T21:12:13;2.90;;;2.10;;
4555;SDS011;2290;48.674;9.018;2023-04-02T21:14:39;3.77;;;3.00;;
4555;SDS011;2290;48.674;9.018;2023-04-02T21:17:04;3.80;;;2.03;;
4555;SDS011;2290;48.674;9.018;2023-04-02T21:19:32;4.43;;;2.70;;
4555;SDS011;2290;48.674;9.018;2023-04-02T21:21:58;4.30;;;2.43;;
4555;SDS011;2290;48.674;9.018;2023-04-02T21:24:23;2.80;;;2.33;;
4555;SDS011;2290;48.674;9.018;2023-04-02T21:26:49;2.40;;;2.10;;
4555;SDS011;2290;48.674;9.018;2023-04-02T21:29:15;2.90;;;2.60;;
4555;SDS011;2290;48.674;9.018;2023-04-02T21:31:42;5.40;;;2.90;;
4555;SDS011;2290;48.674;9.018;2023-04-02T21:34:08;4.27;;;2.50;;
4555;SDS011;2290;48.674;9.018;2023-04-02T21:36:44;3.90;;;2.50;;